createdAt,value
2022-08-30T00:02:26.299Z,23.01
2022-08-30T00:04:54.483Z,22.97
2022-08-30T00:07:22.576Z,22.90
2022-08-30T00:09:49.471Z,22.95
2022-08-30T00:12:16.428Z,23.04
2022-08-30T00:14:43.519Z,23.08
2022-08-30T00:17:10.463Z,22.96
2022-08-30T00:19:38.271Z,22.88
2022-08-30T00:22:07.304Z,22.79
2022-08-30T00:24:34.305Z,22.98
2022-08-30T00:27:01.205Z,23.19
2022-08-30T00:29:28.421Z,23.09
2022-08-30T00:31:55.321Z,23.00
2022-08-30T00:34:22.323Z,22.85
2022-08-30T00:36:49.269Z,22.48
2022-08-30T00:39:16.201Z,22.66
2022-08-30T00:41:43.154Z,22.65
2022-08-30T00:44:10.448Z,22.65
2022-08-30T00:46:37.509Z,22.71
2022-08-30T00:49:07.867Z,22.73
2022-08-30T00:51:35.487Z,22.96
2022-08-30T00:54:04.277Z,23.02
2022-08-30T00:56:32.426Z,22.87
2022-08-30T00:59:02.477Z,22.96
2022-08-30T01:01:32.218Z,22.60
2022-08-30T01:04:02.444Z,21.88
2022-08-30T01:06:32.546Z,22.03
2022-08-30T01:09:01.753Z,21.60
2022-08-30T01:11:31.195Z,21.71
2022-08-30T01:13:58.678Z,21.60
2022-08-30T01:16:27.307Z,21.64
2022-08-30T01:19:00.485Z,21.95
2022-08-30T01:21:54.532Z,22.00
2022-08-30T01:24:22.317Z,22.00
2022-08-30T01:26:49.991Z,22.03
2022-08-30T01:29:22.002Z,21.85
2022-08-30T01:31:49.535Z,21.94
2022-08-30T01:34:16.602Z,21.91
2022-08-30T01:36:46.367Z,22.16
2022-08-30T01:39:16.118Z,22.14
2022-08-30T01:41:43.776Z,22.18
2022-08-30T01:44:12.610Z,22.20
2022-08-30T01:46:43.822Z,22.22
2022-08-30T01:49:14.362Z,22.06
2022-08-30T01:51:42.217Z,21.88
2022-08-30T01:54:10.454Z,22.02
2022-08-30T01:56:37.577Z,21.51
2022-08-30T01:59:05.264Z,21.17
2022-08-30T02:01:35.951Z,21.08
2022-08-30T02:04:04.596Z,20.95
2022-08-30T02:06:31.917Z,21.01
2022-08-30T02:08:59.628Z,21.10
2022-08-30T02:11:26.945Z,20.96
2022-08-30T02:13:54.762Z,21.04
2022-08-30T02:16:23.991Z,20.79
2022-08-30T02:18:53.221Z,20.97
2022-08-30T02:21:21.317Z,21.04
2022-08-30T02:23:48.385Z,20.88
2022-08-30T02:26:16.485Z,21.11
2022-08-30T02:28:49.889Z,21.28
2022-08-30T02:31:20.377Z,21.58
2022-08-30T02:33:50.762Z,21.84
2022-08-30T02:36:18.543Z,21.76
2022-08-30T02:38:46.398Z,21.73
2022-08-30T02:41:13.730Z,21.38
2022-08-30T02:43:40.799Z,21.48
2022-08-30T02:46:08.545Z,21.60
2022-08-30T02:48:35.512Z,21.73
2022-08-30T02:51:09.524Z,21.47
2022-08-30T02:53:39.383Z,21.41
2022-08-30T02:56:06.385Z,21.39
2022-08-30T02:58:33.523Z,21.51
2022-08-30T03:01:00.558Z,21.36
2022-08-30T03:03:27.812Z,21.37
2022-08-30T03:05:54.821Z,21.24
2022-08-30T03:08:22.944Z,21.24
2022-08-30T03:10:50.387Z,21.24
2022-08-30T03:13:17.531Z,21.35
2022-08-30T03:15:44.700Z,21.23
2022-08-30T03:18:11.675Z,20.95
2022-08-30T03:20:38.873Z,21.02
2022-08-30T03:23:05.841Z,20.72
2022-08-30T03:25:33.970Z,20.58
2022-08-30T03:28:01.291Z,20.72
2022-08-30T03:30:28.363Z,20.69
2022-08-30T03:32:55.355Z,20.23
2022-08-30T03:35:22.384Z,20.09
2022-08-30T03:37:49.781Z,20.17
2022-08-30T03:40:23.437Z,20.54
2022-08-30T03:42:50.851Z,20.89
2022-08-30T03:45:19.384Z,20.48
2022-08-30T03:47:46.741Z,20.67
2022-08-30T03:50:15.770Z,20.97
2022-08-30T03:52:42.980Z,21.16
2022-08-30T03:55:10.062Z,20.88
2022-08-30T03:57:36.988Z,20.58
2022-08-30T04:00:07.060Z,20.72
2022-08-30T04:02:38.868Z,21.04
2022-08-30T04:05:06.400Z,21.24
2022-08-30T04:07:33.326Z,21.27
2022-08-30T04:10:01.052Z,21.22
2022-08-30T04:12:28.070Z,21.31
2022-08-30T04:14:55.121Z,21.49
2022-08-30T04:17:22.112Z,21.84
2022-08-30T04:19:49.038Z,22.00
2022-08-30T04:22:16.204Z,21.76
2022-08-30T04:24:43.332Z,21.64
2022-08-30T04:27:10.768Z,22.00
2022-08-30T04:29:37.777Z,22.20
2022-08-30T04:32:05.031Z,22.52
2022-08-30T04:34:32.147Z,22.52
2022-08-30T04:36:59.163Z,22.22
2022-08-30T04:39:26.226Z,22.11
2022-08-30T04:41:53.285Z,21.91
2022-08-30T04:44:20.268Z,21.87
2022-08-30T04:46:47.970Z,21.89
2022-08-30T04:49:15.063Z,21.78
2022-08-30T04:51:42.131Z,21.83
2022-08-30T04:54:09.070Z,22.18
2022-08-30T04:56:36.118Z,22.21
2022-08-30T04:59:03.104Z,22.14
2022-08-30T05:01:32.242Z,22.57
2022-08-30T05:04:13.795Z,23.28
2022-08-30T05:06:40.887Z,22.96
2022-08-30T05:09:07.776Z,23.04
2022-08-30T05:11:34.832Z,23.28
2022-08-30T05:14:01.779Z,23.47
2022-08-30T05:16:28.823Z,23.75
2022-08-30T05:18:55.896Z,23.79
2022-08-30T05:21:26.679Z,24.28
2022-08-30T05:23:56.196Z,24.27
2022-08-30T05:26:27.642Z,25.04
2022-08-30T05:28:55.236Z,26.03
2022-08-30T05:31:28.720Z,27.27
2022-08-30T05:33:56.058Z,28.60
2022-08-30T05:36:26.707Z,29.33
2022-08-30T05:38:54.734Z,29.78
2022-08-30T05:41:26.523Z,29.92
2022-08-30T05:43:56.819Z,29.55
2022-08-30T05:46:24.536Z,29.48
2022-08-30T05:48:52.108Z,29.50
2022-08-30T05:51:21.768Z,29.52
2022-08-30T05:53:50.152Z,29.20
2022-08-30T05:56:20.696Z,28.75
2022-08-30T05:58:48.174Z,28.78
2022-08-30T06:01:23.168Z,28.57
2022-08-30T06:03:53.667Z,28.15
2022-08-30T06:06:22.729Z,28.12
2022-08-30T06:08:50.486Z,29.09
2022-08-30T06:11:20.135Z,29.25
2022-08-30T06:13:48.108Z,30.12
2022-08-30T06:16:17.852Z,30.60
2022-08-30T06:18:45.212Z,30.63
2022-08-30T06:21:26.102Z,31.02
2022-08-30T06:23:54.391Z,30.65
2022-08-30T06:26:21.618Z,30.64
2022-08-30T06:28:49.479Z,30.62
2022-08-30T06:31:18.342Z,30.71
2022-08-30T06:33:45.885Z,30.64
2022-08-30T06:36:23.090Z,30.52
2022-08-30T06:38:52.364Z,30.77
2022-08-30T06:41:22.528Z,31.44
2022-08-30T06:43:50.030Z,31.98
2022-08-30T06:46:26.479Z,31.86
2022-08-30T06:48:56.095Z,32.38
2022-08-30T06:51:43.664Z,31.94
2022-08-30T06:54:12.508Z,32.09
2022-08-30T06:56:55.297Z,32.44
2022-08-30T06:59:24.792Z,32.52
2022-08-30T07:01:52.222Z,32.86
2022-08-30T07:04:19.237Z,32.78
2022-08-30T07:06:46.285Z,33.16
2022-08-30T07:09:13.231Z,33.56
2022-08-30T07:11:42.062Z,34.43
2022-08-30T07:14:09.405Z,34.85
2022-08-30T07:16:36.556Z,36.14
2022-08-30T07:19:05.427Z,35.88
2022-08-30T07:21:33.872Z,37.33
2022-08-30T07:24:01.662Z,38.68
2022-08-30T07:26:32.907Z,37.09
2022-08-30T07:29:00.049Z,37.59
2022-08-30T07:31:27.006Z,37.62
2022-08-30T07:33:54.707Z,37.35
2022-08-30T07:36:22.800Z,35.77
2022-08-30T07:38:51.558Z,36.09
2022-08-30T07:41:35.698Z,35.77
2022-08-30T07:44:02.967Z,34.36
2022-08-30T07:46:30.195Z,34.27
2022-08-30T07:49:00.088Z,34.21
2022-08-30T07:51:29.224Z,34.35
2022-08-30T07:53:56.834Z,35.08
2022-08-30T07:56:24.998Z,35.88
2022-08-30T07:58:53.042Z,37.08
2022-08-30T08:01:22.341Z,38.29
2022-08-30T08:03:50.626Z,37.17
2022-08-30T08:06:19.991Z,36.48
2022-08-30T08:08:47.201Z,37.55
2022-08-30T08:11:28.439Z,35.88
2022-08-30T08:13:58.745Z,36.88
2022-08-30T08:16:27.533Z,36.97
2022-08-30T08:18:55.510Z,35.87
2022-08-30T08:21:24.109Z,35.23
2022-08-30T08:23:51.562Z,35.75
2022-08-30T08:26:19.878Z,37.00
2022-08-30T08:28:47.505Z,36.07
2022-08-30T08:31:27.120Z,36.38
2022-08-30T08:33:56.534Z,35.53
2022-08-30T08:36:23.597Z,35.87
2022-08-30T08:38:50.679Z,36.01
2022-08-30T08:41:35.935Z,36.37
2022-08-30T08:44:19.194Z,37.70
2022-08-30T08:46:52.408Z,36.42
2022-08-30T08:49:19.613Z,36.30
2022-08-30T08:52:05.697Z,37.43
2022-08-30T08:54:52.713Z,36.87
2022-08-30T08:57:24.462Z,35.94
2022-08-30T08:59:54.596Z,35.60
2022-08-30T09:02:30.344Z,36.57
2022-08-30T09:05:02.081Z,35.50
2022-08-30T09:07:41.414Z,35.03
2022-08-30T09:10:08.925Z,34.24
2022-08-30T09:12:36.153Z,34.91
2022-08-30T09:15:11.717Z,34.33
2022-08-30T09:17:52.502Z,34.22
2022-08-30T09:20:41.413Z,33.81
2022-08-30T09:23:14.416Z,34.69
2022-08-30T09:26:05.401Z,34.64
2022-08-30T09:28:43.920Z,33.85
2022-08-30T09:31:23.718Z,33.91
2022-08-30T09:34:15.835Z,34.13
2022-08-30T09:36:52.067Z,33.96
2022-08-30T09:39:41.486Z,33.18
2022-08-30T09:42:20.818Z,33.51
2022-08-30T09:44:47.862Z,33.78
2022-08-30T09:47:31.772Z,34.49
2022-08-30T09:50:27.339Z,33.73
2022-08-30T09:53:11.931Z,33.56
2022-08-30T09:56:03.637Z,33.93
2022-08-30T09:58:52.417Z,34.10
2022-08-30T10:01:24.979Z,33.60
2022-08-30T10:04:02.473Z,33.62
2022-08-30T10:07:16.499Z,33.17
2022-08-30T10:10:03.007Z,33.57
2022-08-30T10:12:57.292Z,33.33
2022-08-30T10:15:30.980Z,33.51
2022-08-30T10:18:06.997Z,33.06
2022-08-30T10:20:59.670Z,32.94
2022-08-30T10:23:40.804Z,32.87
2022-08-30T10:26:26.626Z,32.93
2022-08-30T10:29:04.583Z,33.17
2022-08-30T10:31:56.526Z,33.85
2022-08-30T10:34:54.639Z,32.57
2022-08-30T10:37:25.709Z,32.20
2022-08-30T10:40:22.473Z,31.88
2022-08-30T10:42:52.864Z,31.09
2022-08-30T10:45:22.324Z,31.48
2022-08-30T10:47:59.860Z,31.70
2022-08-30T10:50:41.033Z,31.58
2022-08-30T10:53:21.575Z,31.81
2022-08-30T10:56:05.980Z,31.55
2022-08-30T10:58:33.506Z,32.08
2022-08-30T11:01:06.198Z,31.49
2022-08-30T11:03:39.832Z,31.55
2022-08-30T11:06:27.576Z,30.90
2022-08-30T11:09:09.928Z,31.44
2022-08-30T11:11:40.773Z,31.41
2022-08-30T11:14:12.894Z,31.68
2022-08-30T11:16:44.132Z,31.12
2022-08-30T11:19:35.324Z,31.49
2022-08-30T11:22:21.946Z,32.24
2022-08-30T11:25:10.006Z,31.85
2022-08-30T11:27:51.472Z,32.62
2022-08-30T11:30:26.727Z,33.05
2022-08-30T11:33:17.478Z,32.87
2022-08-30T11:35:52.771Z,31.63
2022-08-30T11:38:25.683Z,31.10
2022-08-30T11:41:30.060Z,31.21
2022-08-30T11:44:13.583Z,31.35
2022-08-30T11:46:42.282Z,31.22
2022-08-30T11:49:15.616Z,31.20
2022-08-30T11:55:03.835Z,31.12
2022-08-30T11:57:52.214Z,30.89
2022-08-30T12:00:35.134Z,31.16
2022-08-30T12:03:07.732Z,31.53
2022-08-30T12:05:48.192Z,31.21
2022-08-30T12:08:21.337Z,31.77
2022-08-30T12:11:11.257Z,31.72
2022-08-30T12:13:38.211Z,31.64
2022-08-30T12:16:14.223Z,31.52
2022-08-30T12:18:49.649Z,32.07
2022-08-30T12:21:22.710Z,31.44
2022-08-30T12:24:04.365Z,31.18
2022-08-30T12:26:38.218Z,30.82
2022-08-30T12:29:26.953Z,30.66
2022-08-30T12:31:59.105Z,31.00
2022-08-30T12:34:41.020Z,30.64
2022-08-30T12:37:28.894Z,30.51
2022-08-30T12:40:23.346Z,30.66
2022-08-30T12:43:00.360Z,31.62
2022-08-30T12:45:50.600Z,31.20
2022-08-30T12:48:19.746Z,31.08
2022-08-30T12:50:54.461Z,31.19
2022-08-30T12:53:27.962Z,30.78
2022-08-30T12:55:55.497Z,30.59
2022-08-30T12:58:36.919Z,30.87
2022-08-30T13:01:18.517Z,31.18
2022-08-30T13:03:59.809Z,30.08
2022-08-30T13:06:43.875Z,29.81
2022-08-30T13:09:39.143Z,30.66
2022-08-30T13:12:09.930Z,30.54
2022-08-30T13:14:43.596Z,30.12
2022-08-30T13:17:20.418Z,29.64
2022-08-30T13:20:22.197Z,29.37
2022-08-30T13:23:09.758Z,29.63
2022-08-30T13:25:39.736Z,29.49
2022-08-30T13:28:08.445Z,29.36
2022-08-30T13:30:36.075Z,30.15
2022-08-30T13:33:03.298Z,29.56
2022-08-30T13:35:31.880Z,29.35
2022-08-30T13:38:02.035Z,29.43
2022-08-30T13:40:29.194Z,29.43
2022-08-30T13:42:56.980Z,29.42
2022-08-30T13:45:41.700Z,29.87
2022-08-30T13:48:10.913Z,29.57
2022-08-30T13:50:38.267Z,29.40
2022-08-30T13:53:05.863Z,29.36
2022-08-30T13:55:33.850Z,29.20
2022-08-30T13:58:00.857Z,28.97
2022-08-30T14:00:28.858Z,29.39
2022-08-30T14:02:57.553Z,29.04
2022-08-30T14:06:10.219Z,29.34
2022-08-30T14:08:45.197Z,29.16
2022-08-30T14:11:18.508Z,29.02
2022-08-30T14:16:36.105Z,29.15
2022-08-30T14:19:03.576Z,28.95
2022-08-30T14:21:33.145Z,28.97
2022-08-30T14:24:00.279Z,28.67
2022-08-30T14:26:32.750Z,28.82
2022-08-30T14:29:03.546Z,28.59
2022-08-30T14:31:32.717Z,28.48
2022-08-30T14:34:01.534Z,28.57
2022-08-30T14:36:30.957Z,28.42
2022-08-30T14:38:58.501Z,28.38
2022-08-30T14:41:25.697Z,28.46
2022-08-30T14:43:53.030Z,28.63
2022-08-30T14:46:20.279Z,28.62
2022-08-30T14:48:47.256Z,28.69
2022-08-30T14:51:18.782Z,28.34
2022-08-30T14:53:47.106Z,28.34
2022-08-30T14:56:16.776Z,28.36
2022-08-30T14:58:50.749Z,28.48
2022-08-30T15:01:19.225Z,28.29
2022-08-30T15:03:46.675Z,28.60
2022-08-30T15:06:14.267Z,28.45
2022-08-30T15:08:41.675Z,28.34
2022-08-30T15:11:17.852Z,28.76
2022-08-30T15:13:45.868Z,28.32
2022-08-30T15:16:20.544Z,28.12
2022-08-30T15:18:48.171Z,27.69
2022-08-30T15:21:21.889Z,27.76
2022-08-30T15:23:49.732Z,27.66
2022-08-30T15:26:18.570Z,27.60
2022-08-30T15:28:45.558Z,27.40
2022-08-30T15:31:13.095Z,27.56
2022-08-30T15:33:40.292Z,27.63
2022-08-30T15:36:09.003Z,27.46
2022-08-30T15:38:36.500Z,27.56
2022-08-30T15:41:07.459Z,27.84
2022-08-30T15:43:35.125Z,27.65
2022-08-30T15:46:19.662Z,27.68
2022-08-30T15:48:47.177Z,27.65
2022-08-30T15:51:16.761Z,27.37
2022-08-30T15:53:45.197Z,27.22
2022-08-30T15:56:12.546Z,27.10
2022-08-30T15:58:40.175Z,27.08
2022-08-30T16:01:07.930Z,27.13
2022-08-30T16:03:35.967Z,27.04
2022-08-30T16:06:05.098Z,26.84
2022-08-30T16:08:32.102Z,26.86
2022-08-30T16:10:59.004Z,27.09
2022-08-30T16:13:25.885Z,26.87
2022-08-30T16:15:52.914Z,26.82
2022-08-30T16:18:19.905Z,26.91
2022-08-30T16:20:47.412Z,26.83
2022-08-30T16:23:14.369Z,27.02
2022-08-30T16:25:41.546Z,27.11
2022-08-30T16:28:09.572Z,26.89
2022-08-30T16:30:37.177Z,26.75
2022-08-30T16:33:04.289Z,26.44
2022-08-30T16:35:33.118Z,26.48
2022-08-30T16:38:00.116Z,26.93
2022-08-30T16:40:27.572Z,26.95
2022-08-30T16:42:54.562Z,26.89
2022-08-30T16:45:21.501Z,26.73
2022-08-30T16:47:51.124Z,26.51
2022-08-30T16:50:21.600Z,26.53
2022-08-30T16:52:48.515Z,27.15
2022-08-30T16:55:16.038Z,27.34
2022-08-30T16:57:43.952Z,27.37
2022-08-30T17:00:13.263Z,27.39
2022-08-30T17:02:42.659Z,27.02
2022-08-30T17:05:21.233Z,27.09
2022-08-30T17:07:48.119Z,27.47
2022-08-30T17:10:15.556Z,27.58
2022-08-30T17:12:50.254Z,27.29
2022-08-30T17:15:17.615Z,27.31
2022-08-30T17:17:44.678Z,27.42
2022-08-30T17:20:12.612Z,27.38
2022-08-30T17:22:40.444Z,27.26
2022-08-30T17:25:08.740Z,27.15
2022-08-30T17:27:36.271Z,27.23
2022-08-30T17:30:06.711Z,27.20
2022-08-30T17:32:34.385Z,27.37
2022-08-30T17:35:02.122Z,27.46
2022-08-30T17:37:29.038Z,27.43
2022-08-30T17:39:56.185Z,27.29
2022-08-30T17:42:23.139Z,27.36
2022-08-30T17:44:58.031Z,27.20
2022-08-30T17:47:28.287Z,27.35
2022-08-30T17:49:55.650Z,27.09
2022-08-30T17:52:22.558Z,27.51
2022-08-30T17:54:50.662Z,27.47
2022-08-30T17:57:18.202Z,27.40
2022-08-30T17:59:45.911Z,27.31
2022-08-30T18:02:14.511Z,27.22
2022-08-30T18:04:42.716Z,27.14
2022-08-30T18:09:58.853Z,26.87
2022-08-30T18:12:27.585Z,26.99
2022-08-30T18:14:54.503Z,27.02
2022-08-30T18:17:21.637Z,26.70
2022-08-30T18:19:49.069Z,27.21
2022-08-30T18:22:16.723Z,27.26
2022-08-30T18:24:44.982Z,27.33
2022-08-30T18:27:12.130Z,27.25
2022-08-30T18:29:40.535Z,27.01
2022-08-30T18:32:09.206Z,26.97
2022-08-30T18:34:36.444Z,26.85
2022-08-30T18:37:03.502Z,26.81
2022-08-30T18:39:34.643Z,26.46
2022-08-30T18:42:02.965Z,26.65
2022-08-30T18:44:33.291Z,26.61
2022-08-30T18:47:01.950Z,26.73
2022-08-30T18:49:32.781Z,26.78
2022-08-30T18:52:01.059Z,26.74
2022-08-30T18:54:28.194Z,26.73
2022-08-30T18:56:55.177Z,26.72
2022-08-30T18:59:22.090Z,26.49
2022-08-30T19:01:50.266Z,26.41
2022-08-30T19:04:22.417Z,26.01
2022-08-30T19:06:57.342Z,26.10
2022-08-30T19:09:24.281Z,26.10
2022-08-30T19:11:53.969Z,25.72
2022-08-30T19:14:20.912Z,25.66
2022-08-30T19:16:48.236Z,25.73
2022-08-30T19:19:15.672Z,25.75
2022-08-30T19:21:42.876Z,25.56
2022-08-30T19:24:10.134Z,25.56
2022-08-30T19:26:38.496Z,25.32
2022-08-30T19:29:06.526Z,25.39
2022-08-30T19:31:34.122Z,25.35
2022-08-30T19:34:01.148Z,25.55
2022-08-30T19:36:29.046Z,25.74
2022-08-30T19:38:56.225Z,25.76
2022-08-30T19:41:23.747Z,25.19
2022-08-30T19:43:51.993Z,24.73
2022-08-30T19:46:18.907Z,24.84
2022-08-30T19:48:45.870Z,25.07
2022-08-30T19:51:15.190Z,25.04
2022-08-30T19:53:43.470Z,25.06
2022-08-30T19:56:11.617Z,25.09
2022-08-30T19:58:39.023Z,25.29
2022-08-30T20:01:12.345Z,25.10
2022-08-30T20:03:54.390Z,25.15
2022-08-30T20:06:23.950Z,24.79
2022-08-30T20:08:50.919Z,24.69
2022-08-30T20:11:23.616Z,24.92
2022-08-30T20:13:50.684Z,24.79
2022-08-30T20:16:17.981Z,24.84
2022-08-30T20:18:45.376Z,24.79
2022-08-30T20:21:14.683Z,24.74
2022-08-30T20:23:43.295Z,24.73
2022-08-30T20:24:26.427Z,26.83
2022-08-30T20:26:11.851Z,24.66
2022-08-30T20:28:39.902Z,24.59
2022-08-30T20:31:08.146Z,24.61
2022-08-30T20:33:39.258Z,24.88
2022-08-30T20:36:09.928Z,25.20
2022-08-30T20:38:37.633Z,25.21
2022-08-30T20:41:10.948Z,25.12
2022-08-30T20:43:38.681Z,25.32
2022-08-30T20:46:14.884Z,25.39
2022-08-30T20:48:43.568Z,25.39
2022-08-30T20:51:15.559Z,25.14
2022-08-30T20:53:43.396Z,25.17
2022-08-30T20:56:16.533Z,25.25
2022-08-30T20:58:44.063Z,24.85
2022-08-30T21:01:11.918Z,24.83
2022-08-30T21:03:40.243Z,24.69
2022-08-30T21:06:07.615Z,24.60
2022-08-30T21:08:34.905Z,24.70
2022-08-30T21:11:02.141Z,24.85
2022-08-30T21:13:30.112Z,24.95
2022-08-30T21:16:00.621Z,24.99
2022-08-30T21:18:33.214Z,24.57
2022-08-30T21:21:08.350Z,24.37
2022-08-30T21:23:35.849Z,24.29
2022-08-30T21:26:09.764Z,24.40
2022-08-30T21:28:36.966Z,24.50
2022-08-30T21:31:07.383Z,24.72
2022-08-30T21:33:34.788Z,24.78
2022-08-30T21:36:20.503Z,24.80
2022-08-30T21:38:47.503Z,24.85
2022-08-30T21:41:15.102Z,24.84
2022-08-30T21:43:42.017Z,24.86
2022-08-30T21:46:10.451Z,25.08
2022-08-30T21:48:37.831Z,24.97
2022-08-30T21:51:09.873Z,24.79
2022-08-30T21:53:37.729Z,24.78
2022-08-30T21:56:31.930Z,24.70
2022-08-30T21:58:58.950Z,24.38
2022-08-30T22:01:28.852Z,24.40
2022-08-30T22:03:58.380Z,24.51
2022-08-30T22:06:30.776Z,24.41
2022-08-30T22:09:01.254Z,24.46
2022-08-30T22:11:29.391Z,24.29
2022-08-30T22:13:56.365Z,23.65
2022-08-30T22:16:24.309Z,23.55
2022-08-30T22:18:51.542Z,23.59
2022-08-30T22:21:22.961Z,23.96
2022-08-30T22:23:50.871Z,24.16
2022-08-30T22:26:19.372Z,23.97
2022-08-30T22:28:46.890Z,23.86
2022-08-30T22:31:15.568Z,23.97
2022-08-30T22:33:43.863Z,23.87
2022-08-30T22:36:14.713Z,23.90
2022-08-30T22:38:41.661Z,23.91
2022-08-30T22:41:16.663Z,24.26
2022-08-30T22:43:44.837Z,24.52
2022-08-30T22:46:12.420Z,24.49
2022-08-30T22:48:41.937Z,24.27
2022-08-30T22:51:10.884Z,24.21
2022-08-30T22:53:37.880Z,24.06
2022-08-30T22:56:20.603Z,23.87
2022-08-30T22:58:48.780Z,23.70
2022-08-30T23:01:20.538Z,23.71
2022-08-30T23:03:47.567Z,23.61
2022-08-30T23:06:14.555Z,23.73
2022-08-30T23:11:08.904Z,23.37
2022-08-30T23:13:35.893Z,22.97
2022-08-30T23:16:05.390Z,23.21
2022-08-30T23:18:33.207Z,23.37
2022-08-30T23:21:13.046Z,23.48
2022-08-30T23:23:59.480Z,23.28
2022-08-30T23:26:45.573Z,23.12
2022-08-30T23:29:31.735Z,23.32
2022-08-30T23:32:17.345Z,22.97
2022-08-30T23:35:03.435Z,22.96
2022-08-30T23:37:53.131Z,23.08
2022-08-30T23:40:40.899Z,23.28
2022-08-30T23:43:27.412Z,23.27
2022-08-30T23:46:18.778Z,22.90
2022-08-30T23:49:06.445Z,23.05
2022-08-30T23:51:52.620Z,22.87
2022-08-30T23:54:38.185Z,22.94
2022-08-30T23:57:24.294Z,23.42
